Time;durP1;ratioP1;P1;durP2;ratioP2;P2;SDS_P1;SDS_P2;PMS_P1;PMS_P2;Temp;Humidity;BMP_temperature;BMP_pressure;BME280_temperature;BME280_humidity;BME280_pressure;Samples;Min_cycle;Max_cycle;Signal;HPM_P1;HPM_P2
2023/08/27 00:02:04;;;;;;;0.90;0.90;;;13.50;99.90;;;;;;5014687;28;20393;-81
2023/08/27 00:04:30;;;;;;;1.30;1.20;;;13.50;99.90;;;;;;4997496;28;20124;-81
2023/08/27 00:06:55;;;;;;;1.20;1.17;;;13.50;99.90;;;;;;4997301;28;20045;-81
2023/08/27 00:09:21;;;;;;;1.00;1.00;;;14.50;99.90;;;;;;4997521;28;20512;-81
2023/08/27 00:11:46;;;;;;;1.15;1.02;;;13.50;99.90;;;;;;4997343;28;20038;-81
2023/08/27 00:14:12;;;;;;;1.00;1.00;;;15.30;99.90;;;;;;4997390;28;20067;-81
2023/08/27 00:16:38;;;;;;;1.08;1.08;;;13.50;99.90;;;;;;4980757;28;20038;-81
2023/08/27 00:19:05;;;;;;;1.00;1.00;;;13.30;99.90;;;;;;4997347;28;20034;-81
2023/08/27 00:21:31;;;;;;;1.00;1.00;;;13.50;99.90;;;;;;4981133;28;20042;-81
2023/08/27 00:23:57;;;;;;;1.15;1.15;;;13.50;99.90;;;;;;4997147;28;20049;-81
2023/08/27 00:26:23;;;;;;;0.90;0.90;;;15.10;99.90;;;;;;4980890;28;20038;-81
2023/08/27 00:28:49;;;;;;;0.93;0.93;;;14.50;99.90;;;;;;4996937;28;20038;-81
2023/08/27 00:31:14;;;;;;;0.80;0.80;;;13.40;99.90;;;;;;4997036;28;20046;-81
2023/08/27 00:33:40;;;;;;;0.90;0.90;;;14.10;99.90;;;;;;4996475;28;20042;-81
2023/08/27 00:36:05;;;;;;;1.08;1.08;;;13.40;99.90;;;;;;4980107;28;20060;-81
2023/08/27 00:38:31;;;;;;;1.10;1.10;;;13.40;99.90;;;;;;4996461;28;20053;-81
2023/08/27 00:40:57;;;;;;;1.33;1.23;;;13.40;99.90;;;;;;4996581;28;20436;-81
2023/08/27 00:43:22;;;;;;;1.20;1.10;;;13.70;99.90;;;;;;4980334;28;20041;-82
2023/08/27 00:45:49;;;;;;;1.23;1.13;;;13.50;99.90;;;;;;4980339;28;20148;-82
2023/08/27 00:48:15;;;;;;;1.00;1.00;;;13.30;99.90;;;;;;4996460;28;20093;-82
2023/08/27 00:50:41;;;;;;;2.17;1.40;;;13.40;99.90;;;;;;4996432;28;20814;-82
2023/08/27 00:53:06;;;;;;;1.30;1.20;;;13.40;99.90;;;;;;4980255;28;20033;-81
2023/08/27 00:55:34;;;;;;;1.50;1.00;;;13.30;99.90;;;;;;4996352;28;20112;-81
2023/08/27 00:58:00;;;;;;;1.05;1.00;;;13.40;99.90;;;;;;4980220;28;20050;-81
2023/08/27 01:00:31;;;;;;;1.45;1.35;;;15.20;99.90;;;;;;4980286;28;20026;-81
2023/08/27 01:02:57;;;;;;;1.30;1.20;;;13.40;99.90;;;;;;4980241;28;20085;-85
2023/08/27 01:05:25;;;;;;;1.30;1.20;;;13.40;99.90;;;;;;4996478;28;20493;-85
2023/08/27 01:08:01;;;;;;;1.20;1.10;;;13.30;99.90;;;;;;4996648;28;20088;-85
2023/08/27 01:10:40;;;;;;;1.42;1.30;;;13.30;99.90;;;;;;4980073;28;20046;-86
2023/08/27 01:13:12;;;;;;;1.10;1.10;;;13.30;99.90;;;;;;4996471;28;20100;-86
2023/08/27 01:15:39;;;;;;;1.30;1.20;;;13.40;99.90;;;;;;4996860;28;20037;-86
2023/08/27 01:18:06;;;;;;;1.27;1.20;;;13.60;99.90;;;;;;4997095;28;20555;-87
2023/08/27 01:20:32;;;;;;;1.13;1.00;;;13.30;99.90;;;;;;4980515;28;20041;-86
2023/08/27 01:22:57;;;;;;;1.23;1.13;;;14.80;99.90;;;;;;4980528;28;20040;-86
2023/08/27 01:25:27;;;;;;;1.38;1.27;;;13.30;99.90;;;;;;4996561;28;20489;-86
2023/08/27 01:28:11;;;;;;;0.95;0.95;;;13.60;99.90;;;;;;4996986;28;20045;-85
2023/08/27 01:31:00;;;;;;;1.40;1.30;;;13.40;99.90;;;;;;4982179;28;20061;-86
2023/08/27 01:33:28;;;;;;;1.05;1.05;;;13.30;99.90;;;;;;4981038;28;20080;-87
2023/08/27 01:35:56;;;;;;;1.50;1.40;;;14.10;99.90;;;;;;4998937;28;20042;-86
2023/08/27 01:38:22;;;;;;;1.30;1.20;;;15.20;99.90;;;;;;4998588;28;20127;-86
2023/08/27 01:40:48;;;;;;;1.30;1.13;;;14.80;99.90;;;;;;4998078;28;20038;-86
2023/08/27 01:43:16;;;;;;;0.98;0.98;;;13.40;99.90;;;;;;4996570;28;20129;-82
2023/08/27 01:45:42;;;;;;;1.10;1.08;;;13.40;99.90;;;;;;4979477;28;20505;-81
2023/08/27 01:48:07;;;;;;;1.38;1.27;;;13.40;99.90;;;;;;4979501;28;20041;-81
2023/08/27 01:50:33;;;;;;;0.90;0.90;;;15.20;99.90;;;;;;4997199;28;20041;-82
2023/08/27 01:52:59;;;;;;;1.48;1.27;;;13.40;99.90;;;;;;4996859;28;20511;-81
2023/08/27 01:55:25;;;;;;;1.52;1.40;;;15.50;99.90;;;;;;4978980;28;20050;-81
2023/08/27 01:57:50;;;;;;;1.17;1.13;;;13.40;99.90;;;;;;4979690;28;20053;-81
2023/08/27 02:00:18;;;;;;;1.40;1.30;;;13.90;99.90;;;;;;4995896;28;20136;-81
2023/08/27 02:02:44;;;;;;;1.30;1.20;;;13.40;99.90;;;;;;4997474;28;20041;-81
2023/08/27 02:05:10;;;;;;;1.77;1.27;;;14.20;99.90;;;;;;4981509;28;20485;-81
2023/08/27 02:07:37;;;;;;;2.35;1.60;;;15.10;99.90;;;;;;4997572;28;20137;-81
2023/08/27 02:10:07;;;;;;;1.40;1.30;;;14.70;99.90;;;;;;4980645;28;20042;-81
2023/08/27 02:12:33;;;;;;;1.40;1.30;;;13.30;99.90;;;;;;4997445;28;20099;-80
2023/08/27 02:14:59;;;;;;;1.33;1.15;;;15.00;99.90;;;;;;4980084;28;20077;-81
2023/08/27 02:17:25;;;;;;;0.95;0.95;;;14.80;99.90;;;;;;4965470;28;20038;-82
2023/08/27 02:19:50;;;;;;;1.15;1.08;;;15.20;99.90;;;;;;4996034;28;20041;-80
2023/08/27 02:22:16;;;;;;;1.20;1.10;;;13.30;99.90;;;;;;4980025;28;20485;-81
2023/08/27 02:24:42;;;;;;;1.67;1.08;;;13.30;99.90;;;;;;4996498;28;20510;-81
2023/08/27 02:27:08;;;;;;;1.05;1.00;;;13.20;99.90;;;;;;4986644;28;20042;-83
2023/08/27 02:29:35;;;;;;;1.17;1.10;;;13.20;99.90;;;;;;5001719;28;20132;-83
2023/08/27 02:32:01;;;;;;;1.10;1.08;;;13.20;99.90;;;;;;4983071;28;20050;-80
2023/08/27 02:34:27;;;;;;;1.50;1.40;;;15.30;99.90;;;;;;4980723;28;20034;-81
2023/08/27 02:36:54;;;;;;;1.20;1.10;;;13.80;99.90;;;;;;4979858;28;20046;-80
2023/08/27 02:39:21;;;;;;;1.40;1.30;;;13.00;99.90;;;;;;4979558;28;20046;-82
2023/08/27 02:41:46;;;;;;;1.30;1.20;;;12.90;99.90;;;;;;4979297;28;20126;-81
2023/08/27 02:44:12;;;;;;;1.30;1.10;;;14.60;99.90;;;;;;4979448;28;20121;-81
2023/08/27 02:46:38;;;;;;;1.05;1.05;;;13.10;99.90;;;;;;4995446;28;20045;-82
2023/08/27 02:49:04;;;;;;;1.30;1.20;;;13.00;99.90;;;;;;4995410;28;20033;-82
2023/08/27 02:51:30;;;;;;;1.13;1.13;;;13.10;99.90;;;;;;5013263;28;20046;-81
2023/08/27 02:53:56;;;;;;;1.52;1.42;;;14.80;99.90;;;;;;5012946;28;20141;-81
2023/08/27 02:56:22;;;;;;;1.40;1.30;;;13.00;99.90;;;;;;4995157;28;20141;-80
2023/08/27 02:58:49;;;;;;;1.40;1.30;;;13.80;99.90;;;;;;4998071;28;20505;-81
2023/08/27 03:01:20;;;;;;;1.10;1.10;;;14.50;99.90;;;;;;4999264;28;20460;-80
2023/08/27 03:03:49;;;;;;;1.50;1.40;;;13.00;99.90;;;;;;4999271;28;20075;-88
2023/08/27 03:06:16;;;;;;;1.65;1.52;;;15.10;99.90;;;;;;4982994;28;20125;-88
2023/08/27 03:08:41;;;;;;;0.90;0.90;;;13.00;99.90;;;;;;4982818;28;20053;-87
2023/08/27 03:11:07;;;;;;;1.60;1.50;;;14.60;99.90;;;;;;4982784;28;20494;-87
2023/08/27 03:13:33;;;;;;;1.20;1.10;;;13.00;99.90;;;;;;4982831;28;20038;-88
2023/08/27 03:15:58;;;;;;;1.60;1.50;;;14.60;99.90;;;;;;4999067;28;20042;-88
2023/08/27 03:18:24;;;;;;;1.35;1.25;;;12.90;99.90;;;;;;4998543;28;20089;-88
2023/08/27 03:20:51;;;;;;;1.35;1.25;;;13.00;99.90;;;;;;4982855;28;20482;-88
2023/08/27 03:23:18;;;;;;;1.40;1.30;;;13.00;99.90;;;;;;4982479;28;20041;-81
2023/08/27 03:25:50;;;;;;;1.58;1.30;;;13.00;99.90;;;;;;5016372;28;20496;-81
2023/08/27 03:28:16;;;;;;;1.15;1.00;;;12.90;99.90;;;;;;5016212;28;20401;-81
2023/08/27 03:30:41;;;;;;;1.50;1.40;;;12.80;99.90;;;;;;4998420;28;20045;-81
2023/08/27 03:33:07;;;;;;;1.15;1.00;;;14.90;99.90;;;;;;4982153;28;20037;-81
2023/08/27 03:35:34;;;;;;;1.50;1.40;;;13.00;99.90;;;;;;4981994;28;20041;-81
2023/08/27 03:38:00;;;;;;;1.50;1.40;;;13.00;99.90;;;;;;4981642;28;20100;-81
2023/08/27 03:40:25;;;;;;;1.35;1.25;;;14.40;99.90;;;;;;4981698;28;20049;-81
2023/08/27 03:42:51;;;;;;;1.52;1.42;;;15.00;99.90;;;;;;4981780;28;20046;-81
2023/08/27 03:45:17;;;;;;;1.48;1.38;;;14.60;99.90;;;;;;4981650;28;20475;-81
2023/08/27 03:47:42;;;;;;;1.10;1.10;;;13.00;99.90;;;;;;5015570;28;20041;-82
2023/08/27 03:50:08;;;;;;;1.45;1.35;;;14.80;99.90;;;;;;4982086;28;20436;-81
2023/08/27 03:52:34;;;;;;;1.45;1.35;;;13.10;99.90;;;;;;4997868;28;20053;-81
2023/08/27 03:55:03;;;;;;;1.38;1.27;;;14.70;99.90;;;;;;4997584;28;20045;-80
2023/08/27 03:57:30;;;;;;;1.70;1.60;;;14.50;99.90;;;;;;4997822;28;20072;-80
2023/08/27 03:59:56;;;;;;;1.33;1.23;;;13.10;99.90;;;;;;4997550;28;20042;-81
2023/08/27 04:02:22;;;;;;;1.38;1.27;;;13.10;99.90;;;;;;4997758;28;20401;-81
2023/08/27 04:04:47;;;;;;;1.48;1.38;;;13.10;99.90;;;;;;4997554;28;20053;-81
2023/08/27 04:07:13;;;;;;;1.15;1.13;;;13.00;99.90;;;;;;4997727;28;20528;-81
2023/08/27 04:09:40;;;;;;;1.50;1.40;;;15.00;99.90;;;;;;4980178;28;20045;-81
2023/08/27 04:12:06;;;;;;;2.05;1.42;;;13.20;99.90;;;;;;4997476;28;20049;-81
2023/08/27 04:14:32;;;;;;;1.10;1.10;;;12.70;99.90;;;;;;4981557;28;20134;-81
2023/08/27 04:16:57;;;;;;;1.85;1.70;;;13.00;99.90;;;;;;5015087;28;20042;-81
2023/08/27 04:19:23;;;;;;;1.23;1.13;;;13.10;99.90;;;;;;4981150;28;20477;-81
2023/08/27 04:21:49;;;;;;;1.27;1.17;;;13.10;99.90;;;;;;4981292;28;20092;-81
2023/08/27 04:24:17;;;;;;;1.55;1.45;;;13.10;99.90;;;;;;4999003;28;20100;-90
2023/08/27 04:26:43;;;;;;;1.20;1.10;;;14.60;99.90;;;;;;4981824;28;20038;-89
2023/08/27 04:29:08;;;;;;;1.48;1.38;;;13.20;99.90;;;;;;4981613;28;20441;-89
2023/08/27 04:31:34;;;;;;;1.40;1.30;;;13.10;99.90;;;;;;4998431;28;20033;-88
2023/08/27 04:34:00;;;;;;;1.45;1.35;;;13.00;99.90;;;;;;4998014;28;20519;-89
2023/08/27 04:36:25;;;;;;;1.15;1.00;;;14.10;99.90;;;;;;4997811;28;20042;-90
2023/08/27 04:38:51;;;;;;;1.48;1.38;;;13.60;99.90;;;;;;4981827;28;20394;-90
2023/08/27 04:41:16;;;;;;;1.02;1.02;;;13.00;99.90;;;;;;4981431;28;20041;-89
2023/08/27 04:43:42;;;;;;;1.20;1.17;;;13.00;99.90;;;;;;4998355;28;20492;-89
2023/08/27 04:46:08;;;;;;;2.90;1.40;;;14.90;99.90;;;;;;4981477;28;20062;-89
2023/08/27 04:48:33;;;;;;;1.05;1.05;;;12.90;99.90;;;;;;4997498;28;20471;-88
2023/08/27 04:50:59;;;;;;;1.45;1.35;;;14.70;99.90;;;;;;4981937;28;20042;-90
2023/08/27 04:53:26;;;;;;;1.08;1.08;;;12.90;99.90;;;;;;4981631;28;20100;-89
2023/08/27 04:55:52;;;;;;;1.30;1.20;;;13.60;99.90;;;;;;4997265;28;20061;-88
2023/08/27 04:58:18;;;;;;;1.27;1.17;;;12.90;99.90;;;;;;4997240;28;20045;-88
2023/08/27 05:00:44;;;;;;;0.90;0.90;;;14.30;99.90;;;;;;4997744;28;20045;-88
2023/08/27 05:03:10;;;;;;;1.50;1.33;;;13.40;99.90;;;;;;4997517;28;20076;-88
2023/08/27 05:05:36;;;;;;;1.40;1.30;;;13.10;99.90;;;;;;4981534;28;20064;-90
2023/08/27 05:08:01;;;;;;;1.38;1.27;;;14.60;99.90;;;;;;4981364;28;20038;-87
2023/08/27 05:10:27;;;;;;;1.42;1.33;;;12.90;99.90;;;;;;4980812;28;20046;-89
2023/08/27 05:12:53;;;;;;;1.15;1.08;;;15.10;99.90;;;;;;4996901;28;20053;-89
2023/08/27 05:15:20;;;;;;;1.23;1.15;;;13.00;99.90;;;;;;4981248;28;20042;-89
2023/08/27 05:17:47;;;;;;;1.40;1.30;;;14.10;99.90;;;;;;4981328;28;20041;-89
2023/08/27 05:20:15;;;;;;;1.17;1.08;;;13.00;99.90;;;;;;4996984;28;20049;-89
2023/08/27 05:22:41;;;;;;;0.90;0.90;;;13.00;99.90;;;;;;4997370;28;20092;-87
2023/08/27 05:25:07;;;;;;;1.40;1.30;;;13.00;99.90;;;;;;4981129;28;20457;-88
2023/08/27 05:27:32;;;;;;;1.27;1.17;;;13.00;99.90;;;;;;4980349;28;20037;-88
2023/08/27 05:29:58;;;;;;;1.25;1.15;;;13.00;99.90;;;;;;4997985;28;20176;-88
2023/08/27 05:32:24;;;;;;;0.90;0.90;;;13.10;99.90;;;;;;4980643;28;20041;-88
2023/08/27 05:34:50;;;;;;;1.30;1.20;;;14.10;99.90;;;;;;4980154;28;20041;-82
2023/08/27 05:37:15;;;;;;;1.00;1.00;;;13.70;99.90;;;;;;4995901;28;20096;-82
2023/08/27 05:39:41;;;;;;;1.20;1.20;;;13.30;99.90;;;;;;4995955;28;20108;-82
2023/08/27 05:42:06;;;;;;;1.08;1.08;;;13.70;99.90;;;;;;4995962;28;20033;-82
2023/08/27 05:44:32;;;;;;;0.90;0.90;;;13.40;99.90;;;;;;4996603;28;20129;-82
2023/08/27 05:46:58;;;;;;;1.13;1.02;;;14.60;99.90;;;;;;4996296;28;20472;-81
2023/08/27 05:49:23;;;;;;;1.10;1.00;;;15.70;99.90;;;;;;4995918;28;20096;-83
2023/08/27 05:51:49;;;;;;;1.25;1.15;;;13.80;99.90;;;;;;4995965;28;20437;-82
2023/08/27 05:54:14;;;;;;;1.40;1.30;;;13.90;99.90;;;;;;4979924;28;20042;-87
2023/08/27 05:56:40;;;;;;;1.23;1.13;;;13.70;99.90;;;;;;4979569;28;20153;-86
2023/08/27 05:59:06;;;;;;;1.45;1.10;;;13.90;99.90;;;;;;4979694;28;20038;-86
2023/08/27 06:01:32;;;;;;;1.27;1.17;;;14.20;99.90;;;;;;4996011;28;20069;-85
2023/08/27 06:03:58;;;;;;;1.05;1.05;;;14.60;99.90;;;;;;4996471;28;20072;-81
2023/08/27 06:06:23;;;;;;;0.90;0.90;;;14.70;99.90;;;;;;4979552;28;20172;-81
2023/08/27 06:08:49;;;;;;;0.93;0.93;;;15.20;99.90;;;;;;4995669;28;20505;-81
2023/08/27 06:11:15;;;;;;;0.98;0.98;;;14.70;99.90;;;;;;4979692;28;20030;-81
2023/08/27 06:13:40;;;;;;;0.90;0.88;;;14.60;99.90;;;;;;4995736;28;20547;-81
2023/08/27 06:16:06;;;;;;;1.08;1.00;;;15.20;99.90;;;;;;4979528;28;20038;-81
2023/08/27 06:18:32;;;;;;;0.98;0.98;;;15.10;99.90;;;;;;4995332;28;20033;-81
2023/08/27 06:20:57;;;;;;;0.90;0.90;;;14.70;99.90;;;;;;4979222;28;20049;-82
2023/08/27 06:23:24;;;;;;;1.15;1.05;;;15.40;99.90;;;;;;4979457;28;20038;-83
2023/08/27 06:25:50;;;;;;;1.13;1.10;;;14.80;99.90;;;;;;4995727;28;20571;-83
2023/08/27 06:28:15;;;;;;;1.65;0.90;;;15.70;99.90;;;;;;4995338;28;20074;-81
2023/08/27 06:30:41;;;;;;;1.38;1.27;;;15.40;99.90;;;;;;4979134;28;20476;-81
2023/08/27 06:33:09;;;;;;;1.00;1.00;;;15.60;99.90;;;;;;4980858;28;20053;-80
2023/08/27 06:35:35;;;;;;;1.33;1.23;;;14.60;99.90;;;;;;4999133;28;20493;-81
2023/08/27 06:38:01;;;;;;;1.58;1.15;;;14.20;99.90;;;;;;4999024;28;20061;-80
2023/08/27 06:40:28;;;;;;;1.30;1.20;;;14.30;99.90;;;;;;4983159;28;20187;-80
2023/08/27 06:42:55;;;;;;;1.42;1.33;;;14.10;99.90;;;;;;4999302;28;20046;-80
2023/08/27 06:45:22;;;;;;;1.20;1.10;;;15.40;99.90;;;;;;4982901;28;20452;-79
2023/08/27 06:47:47;;;;;;;1.40;1.30;;;15.10;99.90;;;;;;4998724;28;20073;-79
2023/08/27 06:50:13;;;;;;;1.20;1.10;;;14.10;99.90;;;;;;4998713;28;20127;-80
2023/08/27 06:52:38;;;;;;;1.40;1.30;;;15.60;99.90;;;;;;4998569;28;20386;-79
2023/08/27 06:55:04;;;;;;;1.00;0.90;;;15.40;99.90;;;;;;4982522;28;20058;-81
2023/08/27 06:57:30;;;;;;;1.10;1.00;;;14.30;99.90;;;;;;4982280;28;20080;-79
2023/08/27 06:59:55;;;;;;;1.20;1.10;;;14.50;99.90;;;;;;4982452;28;20481;-79
2023/08/27 07:02:21;;;;;;;0.88;0.88;;;14.30;99.90;;;;;;4982333;28;20045;-79
2023/08/27 07:04:47;;;;;;;1.27;1.17;;;14.70;99.90;;;;;;4982216;28;20085;-79
2023/08/27 07:07:13;;;;;;;0.90;0.90;;;14.20;99.90;;;;;;4998274;28;20080;-79
2023/08/27 07:09:38;;;;;;;1.00;0.90;;;14.60;99.90;;;;;;4998697;28;20037;-79
2023/08/27 07:12:05;;;;;;;1.85;1.17;;;14.50;99.90;;;;;;4998227;28;20404;-79
2023/08/27 07:14:31;;;;;;;1.02;1.02;;;13.90;99.90;;;;;;4998369;28;20046;-80
2023/08/27 07:16:56;;;;;;;1.05;0.95;;;14.10;99.90;;;;;;4981865;28;20050;-79
2023/08/27 07:19:22;;;;;;;0.80;0.80;;;15.10;99.90;;;;;;4998179;28;20057;-79
2023/08/27 07:21:47;;;;;;;1.42;1.00;;;14.20;99.90;;;;;;4998349;28;20034;-79
2023/08/27 07:24:13;;;;;;;1.05;0.95;;;14.40;99.90;;;;;;4998124;28;20069;-79
2023/08/27 07:26:39;;;;;;;0.75;0.75;;;14.90;99.90;;;;;;4998337;28;20393;-80
2023/08/27 07:29:05;;;;;;;0.75;0.75;;;13.70;99.90;;;;;;4981739;28;20034;-78
2023/08/27 07:31:31;;;;;;;1.20;1.10;;;14.40;99.90;;;;;;4998188;28;20065;-79
2023/08/27 07:33:57;;;;;;;0.70;0.70;;;13.90;99.90;;;;;;4997947;28;20034;-80
2023/08/27 07:36:22;;;;;;;0.80;0.80;;;14.10;99.90;;;;;;4998706;28;20127;-79
2023/08/27 07:38:48;;;;;;;0.70;0.70;;;14.20;99.90;;;;;;4999196;28;20038;-78
2023/08/27 07:41:14;;;;;;;0.80;0.80;;;14.20;99.90;;;;;;4983360;28;20129;-82
2023/08/27 07:43:39;;;;;;;1.80;0.90;;;16.40;99.90;;;;;;4998767;28;20042;-81
2023/08/27 07:46:05;;;;;;;1.40;0.93;;;15.60;99.90;;;;;;4998869;28;20481;-82
2023/08/27 07:48:32;;;;;;;0.60;0.60;;;14.70;99.90;;;;;;5001618;28;20088;-81
2023/08/27 07:50:58;;;;;;;0.60;0.57;;;15.10;99.90;;;;;;4998454;28;20444;-81
2023/08/27 07:53:24;;;;;;;0.50;0.50;;;16.20;99.90;;;;;;4981500;28;20041;-80
2023/08/27 07:55:50;;;;;;;0.80;0.80;;;14.60;99.90;;;;;;4997689;28;20390;-80
2023/08/27 07:58:16;;;;;;;0.80;0.77;;;15.10;99.90;;;;;;4997506;28;20053;-80
2023/08/27 08:00:41;;;;;;;0.77;0.77;;;14.70;99.90;;;;;;4997437;28;20029;-80
2023/08/27 08:03:07;;;;;;;0.82;0.70;;;15.10;99.90;;;;;;4981337;28;20038;-79
2023/08/27 08:05:33;;;;;;;1.08;0.90;;;15.20;99.90;;;;;;4997572;28;20045;-79
2023/08/27 08:07:58;;;;;;;1.00;0.90;;;14.80;99.90;;;;;;4997323;28;20045;-79
2023/08/27 08:10:24;;;;;;;0.60;0.60;;;14.90;99.90;;;;;;4997249;28;20099;-79
2023/08/27 08:12:50;;;;;;;0.60;0.60;;;15.30;99.90;;;;;;4997499;28;20374;-79
2023/08/27 08:15:16;;;;;;;0.45;0.45;;;17.00;99.90;;;;;;4981152;28;20046;-80
2023/08/27 08:17:45;;;;;;;1.00;0.60;;;15.40;99.90;;;;;;4980959;28;20129;-80
2023/08/27 08:20:14;;;;;;;0.52;0.52;;;15.60;99.90;;;;;;4980838;28;20050;-80
2023/08/27 08:22:40;;;;;;;0.50;0.50;;;16.00;99.90;;;;;;4997035;28;20041;-81
2023/08/27 08:25:06;;;;;;;0.40;0.40;;;15.80;99.90;;;;;;4980876;28;20487;-80
2023/08/27 08:27:33;;;;;;;1.02;0.93;;;15.70;99.90;;;;;;4997074;28;20489;-80
2023/08/27 08:29:59;;;;;;;0.60;0.60;;;15.90;99.90;;;;;;4980674;28;20124;-80
2023/08/27 08:32:25;;;;;;;0.60;0.52;;;16.60;99.90;;;;;;4997173;28;20516;-80
2023/08/27 08:34:51;;;;;;;0.50;0.50;;;16.20;99.90;;;;;;4996904;28;20053;-81
2023/08/27 08:37:17;;;;;;;0.60;0.60;;;16.50;99.90;;;;;;4980838;28;20477;-80
2023/08/27 08:39:42;;;;;;;2.33;0.80;;;16.10;99.90;;;;;;4996921;28;20045;-80
2023/08/27 08:42:17;;;;;;;0.55;0.55;;;15.80;99.90;;;;;;4996741;28;20560;-80
2023/08/27 08:44:55;;;;;;;0.60;0.60;;;17.10;99.90;;;;;;4980679;28;20485;-81
2023/08/27 08:47:24;;;;;;;1.05;0.75;;;16.20;99.90;;;;;;4996442;28;20409;-81
2023/08/27 08:49:54;;;;;;;0.40;0.40;;;;;;;;;;4980515;28;20041;-81
2023/08/27 08:52:27;;;;;;;0.65;0.60;;;16.40;99.90;;;;;;4996865;28;20128;-83
2023/08/27 08:54:54;;;;;;;0.80;0.73;;;16.50;99.90;;;;;;4996034;28;20521;-82
2023/08/27 08:57:23;;;;;;;0.60;0.55;;;16.50;99.90;;;;;;4980268;28;20038;-82
2023/08/27 08:59:49;;;;;;;1.13;0.82;;;16.50;99.90;;;;;;4996498;28;20405;-82
2023/08/27 09:02:16;;;;;;;0.60;0.60;;;16.60;99.90;;;;;;4980222;28;20045;-84
2023/08/27 09:04:42;;;;;;;0.60;0.60;;;16.60;99.90;;;;;;4980788;28;20053;-86
2023/08/27 09:07:09;;;;;;;0.52;0.52;;;16.70;99.90;;;;;;4996238;28;20045;-84
2023/08/27 09:09:34;;;;;;;0.73;0.47;;;17.00;99.90;;;;;;4980054;28;20042;-86
2023/08/27 09:12:02;;;;;;;0.50;0.50;;;18.20;99.90;;;;;;4996137;28;20475;-82
2023/08/27 09:14:29;;;;;;;0.57;0.50;;;16.90;99.90;;;;;;4996133;28;20042;-82
2023/08/27 09:16:55;;;;;;;0.73;0.70;;;16.90;99.90;;;;;;4996064;28;20041;-85
2023/08/27 09:19:21;;;;;;;0.63;0.50;;;16.90;99.90;;;;;;4996284;28;20404;-84
2023/08/27 09:21:47;;;;;;;0.35;0.35;;;17.00;99.90;;;;;;4996115;28;20048;-85
2023/08/27 09:24:13;;;;;;;0.50;0.50;;;18.00;99.90;;;;;;4979819;28;20401;-84
2023/08/27 09:26:38;;;;;;;0.60;0.60;;;17.10;99.90;;;;;;4995886;28;20068;-86
2023/08/27 09:29:08;;;;;;;0.60;0.60;;;17.10;99.90;;;;;;4995879;28;20041;-86
2023/08/27 09:31:42;;;;;;;0.70;0.53;;;17.20;99.90;;;;;;4996305;28;20097;-84
2023/08/27 09:34:09;;;;;;;0.75;0.63;;;17.30;99.90;;;;;;4996135;28;20799;-85
2023/08/27 09:36:38;;;;;;;0.30;0.30;;;18.40;99.90;;;;;;4979803;28;20130;-84
2023/08/27 09:39:12;;;;;;;0.60;0.60;;;17.40;99.90;;;;;;4995596;28;20417;-84
2023/08/27 09:41:42;;;;;;;0.45;0.40;;;17.50;99.90;;;;;;4995895;28;20046;-85
2023/08/27 09:44:08;;;;;;;0.30;0.30;;;;;;;;;;4995891;28;20045;-84
2023/08/27 09:46:36;;;;;;;0.50;0.50;;;;;;;;;;4979609;28;20041;-85
2023/08/27 09:49:06;;;;;;;0.85;0.68;;;;;;;;;;4979680;28;20493;-84
2023/08/27 09:51:33;;;;;;;0.40;0.40;;;;;;;;;;4979423;28;20049;-83
2023/08/27 09:54:00;;;;;;;1.23;0.68;;;;;;;;;;4979424;28;20061;-83
2023/08/27 09:56:26;;;;;;;1.45;0.65;;;;;;;;;;4995432;28;20524;-82
2023/08/27 09:58:53;;;;;;;0.73;0.63;;;;;;;;;;4995621;28;20485;-82
2023/08/27 10:01:20;;;;;;;0.43;0.38;;;;;;;;;;4979418;28;20438;-82
2023/08/27 10:03:47;;;;;;;0.47;0.47;;;;;;;;;;4979258;28;20038;-83
2023/08/27 10:06:13;;;;;;;0.77;0.47;;;;;;;;;;4979503;28;20459;-82
2023/08/27 10:08:46;;;;;;;0.40;0.40;;;;;;;;;;4982390;28;20069;-82
2023/08/27 10:11:13;;;;;;;0.35;0.35;;;18.70;99.90;;;;;;4999558;28;20084;-82
2023/08/27 10:13:42;;;;;;;0.60;0.60;;;18.80;99.90;;;;;;4983470;28;20556;-82
2023/08/27 10:16:08;;;;;;;0.82;0.73;;;19.40;99.90;;;;;;4983166;28;20459;-83
2023/08/27 10:18:34;;;;;;;0.60;0.60;;;19.50;99.90;;;;;;4999436;28;20536;-81
2023/08/27 10:21:01;;;;;;;0.60;0.60;;;19.60;99.90;;;;;;4999449;28;20073;-80
2023/08/27 10:23:29;;;;;;;0.65;0.60;;;19.10;99.90;;;;;;4999560;28;20393;-85
2023/08/27 10:25:57;;;;;;;0.60;0.60;;;19.30;99.90;;;;;;4999272;28;20042;-81
2023/08/27 10:28:23;;;;;;;0.95;0.60;;;19.20;99.90;;;;;;4967340;28;20092;-81
2023/08/27 10:30:50;;;;;;;0.82;0.60;;;19.40;99.40;;;;;;4983443;28;20050;-82
2023/08/27 10:33:17;;;;;;;0.50;0.50;;;19.20;96.80;;;;;;4983188;28;20050;-85
2023/08/27 10:35:45;;;;;;;0.60;0.60;;;19.00;99.00;;;;;;4982965;28;20080;-82
2023/08/27 10:38:13;;;;;;;0.80;0.80;;;19.40;96.40;;;;;;4982760;28;20417;-81
2023/08/27 10:40:39;;;;;;;0.70;0.70;;;19.00;96.60;;;;;;4982943;28;20038;-81
2023/08/27 10:43:09;;;;;;;1.70;0.57;;;19.00;99.90;;;;;;4967169;28;20034;-81
2023/08/27 10:45:38;;;;;;;0.50;0.50;;;19.80;98.20;;;;;;4999128;28;20121;-82
2023/08/27 10:48:24;;;;;;;0.50;0.50;;;18.80;99.60;;;;;;4999103;28;20767;-81
2023/08/27 10:51:11;;;;;;;0.70;0.70;;;18.70;99.90;;;;;;4983365;28;20037;-83
2023/08/27 10:53:50;;;;;;;3.45;0.90;;;18.70;98.40;;;;;;4982940;28;20088;-82
2023/08/27 10:56:31;;;;;;;1.33;0.70;;;18.70;98.80;;;;;;4982321;28;20057;-81
2023/08/27 10:59:09;;;;;;;0.65;0.65;;;18.60;99.10;;;;;;4982584;28;20088;-81
2023/08/27 11:01:53;;;;;;;0.68;0.60;;;18.60;98.10;;;;;;4999100;28;20041;-81
2023/08/27 11:04:20;;;;;;;0.40;0.40;;;18.50;99.90;;;;;;4983247;28;20394;-80
2023/08/27 11:06:49;;;;;;;0.63;0.63;;;20.40;99.90;;;;;;4999484;28;20128;-82
2023/08/27 11:09:17;;;;;;;0.60;0.50;;;18.30;99.90;;;;;;4999847;28;20044;-82
2023/08/27 11:11:49;;;;;;;1.00;0.52;;;18.20;99.90;;;;;;4999286;28;20049;-82
2023/08/27 11:14:16;;;;;;;0.75;0.75;;;18.10;99.90;;;;;;4999489;28;20037;-82
2023/08/27 11:16:53;;;;;;;0.98;0.70;;;19.10;99.90;;;;;;4983062;28;20045;-84
2023/08/27 11:19:36;;;;;;;0.73;0.70;;;17.80;99.90;;;;;;4999735;28;20100;-83
2023/08/27 11:22:13;;;;;;;0.40;0.40;;;17.70;99.90;;;;;;4999486;28;20042;-83
2023/08/27 11:24:43;;;;;;;0.50;0.50;;;19.20;99.90;;;;;;4998232;28;20080;-84
2023/08/27 11:27:10;;;;;;;1.05;0.82;;;16.80;99.90;;;;;;4981961;28;20137;-83
2023/08/27 11:29:40;;;;;;;0.90;0.80;;;17.30;99.90;;;;;;4982140;28;20038;-82
2023/08/27 11:32:10;;;;;;;1.33;0.70;;;17.40;99.90;;;;;;4982043;28;20046;-81
2023/08/27 11:34:40;;;;;;;0.50;0.50;;;17.50;99.90;;;;;;4998615;28;20137;-84
2023/08/27 11:37:07;;;;;;;0.57;0.57;;;16.60;99.90;;;;;;4981728;28;20283;-84
2023/08/27 11:39:37;;;;;;;1.75;0.73;;;16.50;99.90;;;;;;4997737;28;20050;-84
2023/08/27 11:42:10;;;;;;;0.70;0.70;;;16.30;99.90;;;;;;4997802;28;20437;-83
2023/08/27 11:44:44;;;;;;;0.90;0.82;;;16.20;99.90;;;;;;4981859;28;20540;-84
2023/08/27 11:47:10;;;;;;;1.35;0.70;;;16.10;99.90;;;;;;4997799;28;20449;-83
2023/08/27 11:49:35;;;;;;;0.50;0.40;;;16.00;99.90;;;;;;4982414;28;20076;-85
2023/08/27 11:52:02;;;;;;;0.70;0.40;;;16.10;99.90;;;;;;4986447;28;20489;-85
2023/08/27 11:54:32;;;;;;;0.80;0.38;;;16.10;99.90;;;;;;4986318;28;20184;-85
2023/08/27 11:56:58;;;;;;;0.43;0.40;;;16.10;99.90;;;;;;4987027;28;20053;-85
2023/08/27 11:59:27;;;;;;;0.93;0.70;;;18.20;99.90;;;;;;4986784;28;20034;-83
2023/08/27 12:01:54;;;;;;;0.50;0.50;;;16.10;99.90;;;;;;5002627;28;20042;-82
2023/08/27 12:04:21;;;;;;;0.63;0.30;;;16.10;99.90;;;;;;4985456;28;20378;-87
2023/08/27 12:06:59;;;;;;;0.57;0.57;;;16.20;99.90;;;;;;5001626;28;20038;-88
2023/08/27 12:09:30;;;;;;;0.50;0.50;;;16.50;99.90;;;;;;4984969;28;20129;-87
2023/08/27 12:12:04;;;;;;;0.63;0.50;;;17.10;99.90;;;;;;4985374;28;20046;-84
2023/08/27 12:14:30;;;;;;;0.63;0.55;;;15.90;99.90;;;;;;5001453;28;20125;-83
2023/08/27 12:17:03;;;;;;;0.88;0.70;;;17.60;99.90;;;;;;5001428;28;20132;-87
2023/08/27 12:19:29;;;;;;;0.80;0.80;;;15.80;99.90;;;;;;4984640;28;20099;-85
2023/08/27 12:21:58;;;;;;;0.70;0.70;;;15.70;99.90;;;;;;5000887;28;20034;-83
2023/08/27 12:24:34;;;;;;;0.98;0.75;;;17.10;99.90;;;;;;4998792;28;20038;-83
2023/08/27 12:27:04;;;;;;;1.13;0.80;;;15.50;99.90;;;;;;4997011;28;20085;-81
2023/08/27 12:29:52;;;;;;;0.73;0.73;;;15.40;99.90;;;;;;4980567;28;20401;-83
2023/08/27 12:32:20;;;;;;;1.00;0.88;;;15.30;99.90;;;;;;4980930;28;20046;-86
2023/08/27 12:34:47;;;;;;;0.70;0.68;;;16.60;99.90;;;;;;4997406;28;20053;-88
2023/08/27 12:37:13;;;;;;;0.63;0.50;;;15.40;99.90;;;;;;4980843;28;20115;-84
2023/08/27 12:39:40;;;;;;;0.73;0.50;;;15.70;99.90;;;;;;4997436;28;20033;-84
2023/08/27 12:42:07;;;;;;;0.55;0.50;;;14.60;99.90;;;;;;4996847;28;20034;-87
2023/08/27 12:44:34;;;;;;;0.95;0.73;;;16.70;99.90;;;;;;4980642;28;20042;-83
2023/08/27 12:47:00;;;;;;;0.50;0.50;;;15.20;99.90;;;;;;4980533;28;20085;-84
2023/08/27 12:49:25;;;;;;;0.60;0.50;;;15.50;99.90;;;;;;4980619;28;20041;-85
2023/08/27 12:51:51;;;;;;;0.70;0.70;;;14.70;99.90;;;;;;4980659;28;20385;-85